createdAt,value
2018-07-21T00:01:11.246Z,55.23
2018-07-21T00:03:39.405Z,54.25
2018-07-21T00:06:07.548Z,54.82
2018-07-21T00:08:35.713Z,55.25
2018-07-21T00:11:03.960Z,55.21
2018-07-21T00:13:32.263Z,55.67
2018-07-21T00:16:00.580Z,55.68
2018-07-21T00:18:28.690Z,54.99
2018-07-21T00:20:56.830Z,54.36
2018-07-21T00:23:24.989Z,56.00
2018-07-21T00:25:53.141Z,55.55
2018-07-21T00:28:21.306Z,54.15
2018-07-21T00:30:49.496Z,54.89
2018-07-21T00:33:17.631Z,54.76
2018-07-21T00:35:45.804Z,54.57
2018-07-21T00:38:14.021Z,54.05
2018-07-21T00:40:42.164Z,54.56
2018-07-21T00:43:10.301Z,56.39
2018-07-21T00:45:38.525Z,56.26
2018-07-21T00:48:06.800Z,55.45
2018-07-21T00:50:34.957Z,56.87
2018-07-21T00:53:03.132Z,54.79
2018-07-21T00:55:31.270Z,54.14
2018-07-21T00:57:59.430Z,54.73
2018-07-21T01:00:27.643Z,53.94
2018-07-21T01:02:55.797Z,53.30
2018-07-21T01:05:23.923Z,53.99
2018-07-21T01:07:52.165Z,52.74
2018-07-21T01:10:20.458Z,52.23
2018-07-21T01:12:48.611Z,55.38
2018-07-21T01:15:16.866Z,56.15
2018-07-21T01:17:45.116Z,56.52
2018-07-21T01:20:13.334Z,54.62
2018-07-21T01:22:41.613Z,55.84
2018-07-21T01:25:09.857Z,54.22
2018-07-21T01:27:38.066Z,54.65
2018-07-21T01:30:06.781Z,53.18
2018-07-21T01:32:34.917Z,54.10
2018-07-21T01:35:03.089Z,56.09
2018-07-21T01:37:31.332Z,56.20
2018-07-21T01:39:59.507Z,57.54
2018-07-21T01:42:27.631Z,58.06
2018-07-21T01:44:55.873Z,58.65
2018-07-21T01:47:24.119Z,58.45
2018-07-21T01:49:52.380Z,59.68
2018-07-21T01:52:20.860Z,60.53
2018-07-21T01:54:49.051Z,57.79
2018-07-21T01:57:17.279Z,56.73
2018-07-21T01:59:45.469Z,57.82
2018-07-21T02:02:13.643Z,56.75
2018-07-21T02:04:41.860Z,57.58
2018-07-21T02:07:10.108Z,57.67
2018-07-21T02:09:38.359Z,57.96
2018-07-21T02:12:06.764Z,59.02
2018-07-21T02:14:35.011Z,58.01
2018-07-21T02:17:03.298Z,57.97
2018-07-21T02:19:31.502Z,59.69
2018-07-21T02:21:59.847Z,57.12
2018-07-21T02:24:28.007Z,55.62
2018-07-21T02:26:56.145Z,54.94
2018-07-21T02:29:24.343Z,56.32
2018-07-21T02:31:52.574Z,57.18
2018-07-21T02:34:20.876Z,57.55
2018-07-21T02:36:49.077Z,57.89
2018-07-21T02:39:17.238Z,57.12
2018-07-21T02:41:45.505Z,59.23
2018-07-21T02:44:13.827Z,59.89
2018-07-21T02:46:41.980Z,61.29
2018-07-21T02:49:10.137Z,61.02
2018-07-21T02:51:38.337Z,61.73
2018-07-21T02:54:06.484Z,61.94
2018-07-21T02:56:34.638Z,62.21
2018-07-21T02:59:02.803Z,60.64
2018-07-21T03:01:30.956Z,59.26
2018-07-21T03:03:59.108Z,57.93
2018-07-21T03:06:27.262Z,57.05
2018-07-21T03:08:55.399Z,57.99
2018-07-21T03:11:23.549Z,59.46
2018-07-21T03:13:51.772Z,57.51
2018-07-21T03:16:19.988Z,59.84
2018-07-21T03:18:48.116Z,61.73
2018-07-21T03:21:16.298Z,61.32
2018-07-21T03:23:44.740Z,58.97
2018-07-21T03:26:13.055Z,58.87
2018-07-21T03:28:41.190Z,60.05
2018-07-21T03:31:09.527Z,61.65
2018-07-21T03:33:37.720Z,63.32
2018-07-21T03:36:05.973Z,61.41
2018-07-21T03:38:34.176Z,61.96
2018-07-21T03:41:02.381Z,62.13
2018-07-21T03:43:30.498Z,63.34
2018-07-21T03:45:58.696Z,63.38
2018-07-21T03:48:26.832Z,62.37
2018-07-21T03:50:54.989Z,62.55
2018-07-21T03:53:23.159Z,63.54
2018-07-21T03:55:51.398Z,63.01
2018-07-21T03:58:19.537Z,63.45
2018-07-21T04:00:47.695Z,63.41
2018-07-21T04:03:15.853Z,62.13
2018-07-21T04:05:44.091Z,62.89
2018-07-21T04:08:12.321Z,62.85
2018-07-21T04:10:40.700Z,62.10
2018-07-21T04:13:08.848Z,63.18
2018-07-21T04:15:37.239Z,61.95
2018-07-21T04:18:05.692Z,62.73
2018-07-21T04:20:33.969Z,64.12
2018-07-21T04:23:02.190Z,65.01
2018-07-21T04:25:30.347Z,64.49
2018-07-21T04:27:58.505Z,65.36
2018-07-21T04:30:26.695Z,65.73
2018-07-21T04:32:54.923Z,65.88
2018-07-21T04:35:23.157Z,66.22
2018-07-21T04:37:51.401Z,66.88
2018-07-21T04:40:19.604Z,67.07
2018-07-21T04:42:47.779Z,65.75
2018-07-21T04:45:15.989Z,65.76
2018-07-21T04:47:44.236Z,66.21
2018-07-21T04:50:12.503Z,66.89
2018-07-21T04:52:40.767Z,63.08
2018-07-21T04:55:08.989Z,62.25
2018-07-21T04:57:37.207Z,61.47
2018-07-21T05:00:05.994Z,61.76
2018-07-21T05:02:34.271Z,60.92
2018-07-21T05:05:02.501Z,59.73
2018-07-21T05:07:30.778Z,60.88
2018-07-21T05:09:58.954Z,60.67
2018-07-21T05:12:27.090Z,60.60
2018-07-21T05:14:55.272Z,62.30
2018-07-21T05:17:23.448Z,60.53
2018-07-21T05:19:51.607Z,60.32
2018-07-21T05:22:19.764Z,60.58
2018-07-21T05:24:47.992Z,59.57
2018-07-21T05:27:16.141Z,59.47
2018-07-21T05:29:44.586Z,60.44
2018-07-21T05:32:12.925Z,60.47
2018-07-21T05:34:41.113Z,58.61
2018-07-21T05:37:09.543Z,59.21
2018-07-21T05:39:37.764Z,59.69
2018-07-21T05:42:05.913Z,59.93
2018-07-21T05:44:34.097Z,59.93
2018-07-21T05:47:02.268Z,58.91
2018-07-21T05:49:30.556Z,58.21
2018-07-21T05:51:58.762Z,57.69
2018-07-21T05:54:27.112Z,58.68
2018-07-21T05:56:55.264Z,57.76
2018-07-21T05:59:23.391Z,58.25
2018-07-21T06:01:51.666Z,57.70
2018-07-21T06:04:19.902Z,58.58
2018-07-21T06:06:48.112Z,57.76
2018-07-21T06:09:16.299Z,57.79
2018-07-21T06:11:44.605Z,58.31
2018-07-21T06:14:12.823Z,57.90
2018-07-21T06:16:41.149Z,57.52
2018-07-21T06:19:09.374Z,56.40
2018-07-21T06:21:37.574Z,57.24
2018-07-21T06:24:05.863Z,57.17
2018-07-21T06:26:34.086Z,57.04
2018-07-21T06:29:02.394Z,56.97
2018-07-21T06:31:30.672Z,57.02
2018-07-21T06:33:58.917Z,58.70
2018-07-21T06:36:27.168Z,58.31
2018-07-21T06:38:55.405Z,56.76
2018-07-21T06:41:23.610Z,58.00
2018-07-21T06:43:51.897Z,57.68
2018-07-21T06:46:20.078Z,57.76
2018-07-21T06:48:48.266Z,54.60
2018-07-21T06:51:16.559Z,55.11
2018-07-21T06:53:44.846Z,55.55
2018-07-21T06:56:13.054Z,55.79
2018-07-21T06:58:41.232Z,55.01
2018-07-21T07:01:09.390Z,54.61
2018-07-21T07:03:37.729Z,54.46
2018-07-21T07:06:05.966Z,53.81
2018-07-21T07:08:34.114Z,54.80
2018-07-21T07:11:02.516Z,54.09
2018-07-21T07:13:30.691Z,53.81
2018-07-21T07:15:59.043Z,53.90
2018-07-21T07:18:27.234Z,53.93
2018-07-21T07:20:55.373Z,52.66
2018-07-21T07:23:23.714Z,52.33
2018-07-21T07:25:52.028Z,52.84
2018-07-21T07:28:20.338Z,53.60
2018-07-21T07:30:49.211Z,53.00
2018-07-21T07:33:17.396Z,52.49
2018-07-21T07:35:45.542Z,53.09
2018-07-21T07:38:13.692Z,53.44
2018-07-21T07:40:41.874Z,53.38
2018-07-21T07:43:10.005Z,52.70
2018-07-21T07:45:38.167Z,52.59
2018-07-21T07:48:06.344Z,53.00
2018-07-21T07:50:34.556Z,53.48
2018-07-21T07:53:02.880Z,52.29
2018-07-21T07:55:32.181Z,53.26
2018-07-21T07:58:01.368Z,52.95
2018-07-21T08:00:29.963Z,51.56
2018-07-21T08:02:58.677Z,52.98
2018-07-21T08:05:27.081Z,53.71
2018-07-21T08:07:55.259Z,52.32
2018-07-21T08:10:23.461Z,52.44
2018-07-21T08:12:52.276Z,51.86
2018-07-21T08:15:20.896Z,51.42
2018-07-21T08:17:49.412Z,50.81
2018-07-21T08:20:17.563Z,50.65
2018-07-21T08:22:45.714Z,51.03
2018-07-21T08:25:13.891Z,49.90
2018-07-21T08:27:42.029Z,49.96
2018-07-21T08:30:11.328Z,50.59
2018-07-21T08:32:39.943Z,49.75
2018-07-21T08:35:08.101Z,49.73
2018-07-21T08:37:37.222Z,49.25
2018-07-21T08:40:05.967Z,48.08
2018-07-21T08:42:34.100Z,48.37
2018-07-21T08:45:02.725Z,49.27
2018-07-21T08:47:31.003Z,49.70
2018-07-21T08:49:59.217Z,48.99
2018-07-21T08:52:27.587Z,49.02
2018-07-21T08:54:55.742Z,49.24
2018-07-21T08:57:23.973Z,47.20
2018-07-21T08:59:52.206Z,46.94
2018-07-21T09:02:20.480Z,46.82
2018-07-21T09:04:48.659Z,45.78
2018-07-21T09:07:16.978Z,46.06
2018-07-21T09:09:45.136Z,47.47
2018-07-21T09:12:13.518Z,47.38
2018-07-21T09:14:41.699Z,46.95
2018-07-21T09:17:09.878Z,45.15
2018-07-21T09:19:38.103Z,45.44
2018-07-21T09:22:06.331Z,45.83
2018-07-21T09:24:34.682Z,45.92
2018-07-21T09:27:02.856Z,46.07
2018-07-21T09:29:31.241Z,44.21
2018-07-21T09:31:59.382Z,43.92
2018-07-21T09:34:27.601Z,45.77
2018-07-21T09:36:55.900Z,45.33
2018-07-21T09:39:24.130Z,43.42
2018-07-21T09:41:52.315Z,44.59
2018-07-21T09:44:20.867Z,43.76
2018-07-21T09:46:49.171Z,44.43
2018-07-21T09:49:17.718Z,44.95
2018-07-21T09:51:45.899Z,43.65
2018-07-21T09:54:14.091Z,44.54
2018-07-21T09:56:42.341Z,44.23
2018-07-21T09:59:10.566Z,44.88
2018-07-21T10:01:38.800Z,44.11
2018-07-21T10:04:06.971Z,43.34
2018-07-21T10:06:35.174Z,44.28
2018-07-21T10:09:03.325Z,44.40
2018-07-21T10:11:31.538Z,42.92
2018-07-21T10:13:59.746Z,43.79
2018-07-21T10:16:27.874Z,43.18
2018-07-21T10:18:56.096Z,43.24
2018-07-21T10:21:24.325Z,44.30
2018-07-21T10:23:52.611Z,42.33
2018-07-21T10:26:26.020Z,43.23
2018-07-21T10:28:59.465Z,43.05
2018-07-21T10:31:27.627Z,42.24
2018-07-21T10:33:55.795Z,42.00
2018-07-21T10:36:24.090Z,43.55
2018-07-21T10:38:52.945Z,44.18
2018-07-21T10:41:21.162Z,43.20
2018-07-21T10:43:49.455Z,42.53
2018-07-21T10:46:17.626Z,42.83
2018-07-21T10:48:45.814Z,42.70
2018-07-21T10:51:13.998Z,41.19
2018-07-21T10:53:42.236Z,41.91
2018-07-21T10:56:10.548Z,42.52
2018-07-21T10:58:38.707Z,42.07
2018-07-21T11:01:07.421Z,41.40
2018-07-21T11:03:35.628Z,42.95
2018-07-21T11:06:03.799Z,42.98
2018-07-21T11:08:31.969Z,43.14
2018-07-21T11:11:00.135Z,42.40
2018-07-21T11:13:28.358Z,42.83
2018-07-21T11:15:56.822Z,41.37
2018-07-21T11:18:24.986Z,40.60
2018-07-21T11:20:53.169Z,40.68
2018-07-21T11:23:21.395Z,41.50
2018-07-21T11:25:49.587Z,41.55
2018-07-21T11:28:17.734Z,41.38
2018-07-21T11:30:46.025Z,42.38
2018-07-21T11:33:14.243Z,41.35
2018-07-21T11:35:42.577Z,40.79
2018-07-21T11:38:10.838Z,40.06
2018-07-21T11:40:39.140Z,41.44
2018-07-21T11:43:07.326Z,41.42
2018-07-21T11:45:35.488Z,40.67
2018-07-21T11:48:03.705Z,40.39
2018-07-21T11:50:31.941Z,40.57
2018-07-21T11:53:00.202Z,41.49
2018-07-21T11:55:28.457Z,41.64
2018-07-21T11:57:56.643Z,40.85
2018-07-21T12:00:25.014Z,40.87
2018-07-21T12:02:53.286Z,39.58
2018-07-21T12:05:21.558Z,38.95
2018-07-21T12:07:49.721Z,40.38
2018-07-21T12:10:17.881Z,40.77
2018-07-21T12:12:46.280Z,39.88
2018-07-21T12:15:14.535Z,39.16
2018-07-21T12:17:42.841Z,40.22
2018-07-21T12:20:11.105Z,41.39
2018-07-21T12:22:39.419Z,39.99
2018-07-21T12:25:07.537Z,40.98
2018-07-21T12:27:35.798Z,39.87
2018-07-21T12:30:04.215Z,40.12
2018-07-21T12:32:32.373Z,39.94
2018-07-21T12:35:00.505Z,40.99
2018-07-21T12:37:28.869Z,41.05
2018-07-21T12:39:57.104Z,41.57
2018-07-21T12:42:25.244Z,41.21
2018-07-21T12:44:53.455Z,40.23
2018-07-21T12:47:21.710Z,40.68
2018-07-21T12:49:49.907Z,40.22
2018-07-21T12:52:18.209Z,41.42
2018-07-21T12:54:46.483Z,40.25
2018-07-21T12:57:15.422Z,39.92
2018-07-21T12:59:43.668Z,40.17
2018-07-21T13:02:11.861Z,39.75
2018-07-21T13:04:40.029Z,39.39
2018-07-21T13:07:08.244Z,40.21
2018-07-21T13:09:37.004Z,40.27
2018-07-21T13:12:05.233Z,39.40
2018-07-21T13:14:33.404Z,40.30
2018-07-21T13:17:01.610Z,39.91
2018-07-21T13:19:29.766Z,40.79
2018-07-21T13:21:58.026Z,40.54
2018-07-21T13:24:26.185Z,39.63
2018-07-21T13:26:54.315Z,41.76
2018-07-21T13:29:22.583Z,42.15
2018-07-21T13:31:50.797Z,41.18
2018-07-21T13:34:19.004Z,40.21
2018-07-21T13:36:47.355Z,40.58
2018-07-21T13:39:15.505Z,41.08
2018-07-21T13:41:43.648Z,39.91
2018-07-21T13:44:11.827Z,39.41
2018-07-21T13:46:40.700Z,40.41
2018-07-21T13:49:08.879Z,39.97
2018-07-21T13:51:37.097Z,41.36
2018-07-21T13:54:05.389Z,40.38
2018-07-21T13:56:33.496Z,40.16
2018-07-21T13:59:01.725Z,40.06
2018-07-21T14:01:29.930Z,39.82
2018-07-21T14:03:58.223Z,40.90
2018-07-21T14:06:26.661Z,40.23
2018-07-21T14:08:54.829Z,40.53
2018-07-21T14:11:23.122Z,40.48
2018-07-21T14:13:51.369Z,41.23
2018-07-21T14:16:19.573Z,40.77
2018-07-21T14:18:47.769Z,40.76
2018-07-21T14:21:15.989Z,40.86
2018-07-21T14:23:44.202Z,41.30
2018-07-21T14:26:12.458Z,40.11
2018-07-21T14:28:40.774Z,41.48
2018-07-21T14:31:09.065Z,40.49
2018-07-21T14:33:37.290Z,39.95
2018-07-21T14:36:06.011Z,40.54
2018-07-21T14:38:34.929Z,40.27
2018-07-21T14:41:03.088Z,40.48
2018-07-21T14:43:31.276Z,41.58
2018-07-21T14:45:59.693Z,41.84
2018-07-21T14:48:27.842Z,42.07
2018-07-21T14:50:56.016Z,41.62
2018-07-21T14:53:24.201Z,41.79
2018-07-21T14:55:52.551Z,40.69
2018-07-21T14:58:20.793Z,41.41
2018-07-21T15:00:49.115Z,41.93
2018-07-21T15:03:17.304Z,41.91
2018-07-21T15:05:45.472Z,40.88
2018-07-21T15:08:13.630Z,41.03
2018-07-21T15:10:41.880Z,41.85
2018-07-21T15:13:10.121Z,40.60
2018-07-21T15:15:38.356Z,41.36
2018-07-21T15:18:06.666Z,41.68
2018-07-21T15:20:34.913Z,40.51
2018-07-21T15:23:03.180Z,40.81
2018-07-21T15:25:31.393Z,41.53
2018-07-21T15:27:59.541Z,43.35
2018-07-21T15:30:27.874Z,41.84
2018-07-21T15:32:56.097Z,42.62
2018-07-21T15:35:24.345Z,42.21
2018-07-21T15:37:52.602Z,42.06
2018-07-21T15:40:20.846Z,42.70
2018-07-21T15:42:49.124Z,42.81
2018-07-21T15:45:17.292Z,43.78
2018-07-21T15:47:45.561Z,42.45
2018-07-21T15:50:13.798Z,43.25
2018-07-21T15:52:42.044Z,41.38
2018-07-21T15:55:10.398Z,42.14
2018-07-21T15:57:38.628Z,43.06
2018-07-21T16:00:07.234Z,42.18
2018-07-21T16:02:35.414Z,43.18
2018-07-21T16:05:03.578Z,42.48
2018-07-21T16:07:31.819Z,42.04
2018-07-21T16:10:00.027Z,41.11
2018-07-21T16:12:28.177Z,41.20
2018-07-21T16:17:24.667Z,41.14
2018-07-21T16:19:52.893Z,40.71
2018-07-21T16:22:21.287Z,41.89
2018-07-21T16:24:49.427Z,41.84
2018-07-21T16:27:17.605Z,41.72
2018-07-21T16:29:45.758Z,42.61
2018-07-21T16:32:13.997Z,41.68
2018-07-21T16:34:42.962Z,41.73
2018-07-21T16:37:11.866Z,43.66
2018-07-21T16:39:40.778Z,41.60
2018-07-21T16:42:08.994Z,41.58
2018-07-21T16:44:37.209Z,41.14
2018-07-21T16:47:05.749Z,41.22
2018-07-21T16:49:33.988Z,41.69
2018-07-21T16:52:02.159Z,41.83
2018-07-21T16:54:30.447Z,42.53
2018-07-21T16:56:58.825Z,42.75
2018-07-21T16:59:26.973Z,42.32
2018-07-21T17:01:55.167Z,42.97
2018-07-21T17:04:23.292Z,43.32
2018-07-21T17:06:51.551Z,43.36
2018-07-21T17:09:19.763Z,42.51
2018-07-21T17:11:47.940Z,41.68
2018-07-21T17:14:16.133Z,41.85
2018-07-21T17:16:44.486Z,41.17
2018-07-21T17:19:12.661Z,41.63
2018-07-21T17:21:40.849Z,41.27
2018-07-21T17:24:09.260Z,41.62
2018-07-21T17:26:37.411Z,41.61
2018-07-21T17:29:05.608Z,41.41
2018-07-21T17:31:33.978Z,42.74
2018-07-21T17:34:02.198Z,42.48
2018-07-21T17:36:30.530Z,42.58
2018-07-21T17:38:58.841Z,42.75
2018-07-21T17:41:27.115Z,42.24
2018-07-21T17:43:55.275Z,42.97
2018-07-21T17:46:23.472Z,42.71
2018-07-21T17:48:51.615Z,42.20
2018-07-21T17:51:19.937Z,42.41
2018-07-21T17:53:48.143Z,42.79
2018-07-21T17:56:16.381Z,43.24
2018-07-21T17:58:44.736Z,43.29
2018-07-21T18:01:12.997Z,43.51
2018-07-21T18:03:41.432Z,43.91
2018-07-21T18:06:09.714Z,43.02
2018-07-21T18:08:37.905Z,43.36
2018-07-21T18:11:06.074Z,45.14
2018-07-21T18:13:34.216Z,43.33
2018-07-21T18:16:02.599Z,44.03
2018-07-21T18:18:30.777Z,44.54
2018-07-21T18:20:58.941Z,44.80
2018-07-21T18:23:27.302Z,44.78
2018-07-21T18:25:55.447Z,44.65
2018-07-21T18:28:23.600Z,45.28
2018-07-21T18:30:51.904Z,44.90
2018-07-21T18:33:20.086Z,44.65
2018-07-21T18:35:48.334Z,45.21
2018-07-21T18:38:16.505Z,45.54
2018-07-21T18:40:44.702Z,45.40
2018-07-21T18:43:12.847Z,46.08
2018-07-21T18:45:41.030Z,45.21
2018-07-21T18:48:09.178Z,45.19
2018-07-21T18:50:37.325Z,46.70
2018-07-21T18:53:05.961Z,46.61
2018-07-21T18:55:34.227Z,47.79
2018-07-21T18:58:02.485Z,46.66
2018-07-21T19:00:30.705Z,47.52
2018-07-21T19:02:58.870Z,47.61
2018-07-21T19:05:27.645Z,47.21
2018-07-21T19:07:56.493Z,47.98
2018-07-21T19:10:24.761Z,47.56
2018-07-21T19:12:53.045Z,48.34
2018-07-21T19:15:27.408Z,48.35
2018-07-21T19:17:55.595Z,48.34
2018-07-21T19:20:29.404Z,48.45
2018-07-21T19:22:57.989Z,48.92
2018-07-21T19:25:31.723Z,48.67
2018-07-21T19:28:00.076Z,48.86
2018-07-21T19:30:28.479Z,49.02
2018-07-21T19:32:59.865Z,49.92
2018-07-21T19:35:29.400Z,48.72
2018-07-21T19:37:58.168Z,48.63
2018-07-21T19:40:27.235Z,48.97
2018-07-21T19:42:56.090Z,49.88
2018-07-21T19:45:25.465Z,50.55
2018-07-21T19:47:54.091Z,50.64
2018-07-21T19:50:22.422Z,50.99
2018-07-21T19:52:50.883Z,50.91
2018-07-21T19:55:19.682Z,52.48
2018-07-21T19:57:48.207Z,52.02
2018-07-21T20:00:16.379Z,52.48
2018-07-21T20:02:44.846Z,51.15
2018-07-21T20:05:13.143Z,51.71
2018-07-21T20:07:41.898Z,51.42
2018-07-21T20:10:10.399Z,52.97
2018-07-21T20:12:38.575Z,51.97
2018-07-21T20:15:06.954Z,52.10
2018-07-21T20:17:35.307Z,51.56
2018-07-21T20:20:03.589Z,50.28
2018-07-21T20:22:31.745Z,51.98
2018-07-21T20:25:00.026Z,51.83
2018-07-21T20:27:28.226Z,50.52
2018-07-21T20:29:56.510Z,51.21
2018-07-21T20:32:24.755Z,51.12
2018-07-21T20:34:52.879Z,51.12
2018-07-21T20:37:21.041Z,51.69
2018-07-21T20:39:49.373Z,51.24
2018-07-21T20:42:17.517Z,52.35
2018-07-21T20:44:45.651Z,53.15
2018-07-21T20:47:14.633Z,52.24
2018-07-21T20:49:42.824Z,51.87
2018-07-21T20:52:11.074Z,52.33
2018-07-21T20:54:39.301Z,53.48
2018-07-21T20:57:08.355Z,53.42
2018-07-21T20:59:36.605Z,51.82
2018-07-21T21:02:05.867Z,52.57
2018-07-21T21:04:34.044Z,52.91
2018-07-21T21:07:02.238Z,53.79
2018-07-21T21:09:30.526Z,52.89
2018-07-21T21:11:58.740Z,51.76
2018-07-21T21:14:26.908Z,52.55
2018-07-21T21:16:55.114Z,51.62
2018-07-21T21:19:23.304Z,52.30
2018-07-21T21:21:51.492Z,51.88
2018-07-21T21:24:19.711Z,52.64
2018-07-21T21:26:48.227Z,52.80
2018-07-21T21:29:16.458Z,51.88
2018-07-21T21:31:44.670Z,53.02
2018-07-21T21:34:12.836Z,53.37
2018-07-21T21:36:41.004Z,51.82
2018-07-21T21:39:10.998Z,52.41
2018-07-21T21:41:39.262Z,52.65
2018-07-21T21:44:07.392Z,52.15
2018-07-21T21:46:35.613Z,51.60
2018-07-21T21:49:03.798Z,52.80
2018-07-21T21:51:31.961Z,51.93
2018-07-21T21:54:00.230Z,52.16
2018-07-21T21:56:28.594Z,52.97
2018-07-21T21:58:56.927Z,53.61
2018-07-21T22:01:25.184Z,53.88
2018-07-21T22:03:53.428Z,53.04
2018-07-21T22:06:22.274Z,53.30
2018-07-21T22:08:50.475Z,53.32
2018-07-21T22:11:18.672Z,52.62
2018-07-21T22:13:47.237Z,53.50
2018-07-21T22:16:15.429Z,52.05
2018-07-21T22:18:43.671Z,53.06
2018-07-21T22:21:12.004Z,52.36
2018-07-21T22:23:40.205Z,51.64
2018-07-21T22:26:08.370Z,52.78
2018-07-21T22:28:36.626Z,52.89
2018-07-21T22:31:04.914Z,51.59
2018-07-21T22:33:33.296Z,51.73
2018-07-21T22:36:01.572Z,50.91
2018-07-21T22:38:29.791Z,51.08
2018-07-21T22:40:57.924Z,51.35
2018-07-21T22:43:26.116Z,51.39
2018-07-21T22:45:54.388Z,51.65
2018-07-21T22:48:22.671Z,51.37
2018-07-21T22:50:50.906Z,52.27
2018-07-21T22:53:19.189Z,51.28
2018-07-21T22:55:47.340Z,52.45
2018-07-21T22:58:15.497Z,52.47
2018-07-21T23:00:43.807Z,52.42
2018-07-21T23:03:12.404Z,51.44
2018-07-21T23:05:40.560Z,51.16
2018-07-21T23:08:08.798Z,51.77
2018-07-21T23:10:36.956Z,51.07
2018-07-21T23:13:05.239Z,51.17
2018-07-21T23:15:33.423Z,51.16
2018-07-21T23:18:01.586Z,51.05
2018-07-21T23:20:29.811Z,52.72
2018-07-21T23:22:58.109Z,51.40
2018-07-21T23:25:26.255Z,52.31
2018-07-21T23:27:54.491Z,51.90
2018-07-21T23:30:22.789Z,53.19
2018-07-21T23:32:51.032Z,53.12
2018-07-21T23:35:19.256Z,54.57
2018-07-21T23:37:48.607Z,53.91
2018-07-21T23:40:16.783Z,52.52
2018-07-21T23:42:44.989Z,53.81
2018-07-21T23:45:13.235Z,51.61
2018-07-21T23:47:41.480Z,52.61
2018-07-21T23:50:09.808Z,51.60
2018-07-21T23:52:38.020Z,52.11
2018-07-21T23:55:07.464Z,53.51
2018-07-21T23:57:35.664Z,52.24
